Аэропорт: Храброво. Калининград

ICAO: UMKK

METAR:
2020-06-01 01:30:00
UMKK 010130Z 03005MPS CAVOK 12/06 Q1023 R06/95D NOSIG RMK QFE766/1021
METAR:
2020-05-31 22:58:00
TAF UMKK 312258Z 0100/0124 01005G10MPS 9999 SCT040 TEMPO 0103/0109 03003G08MPS BECMG 0109/0111 34006G11MPS TEMPO 0112/0121 36007G12MPS BECMG 0121/0123 01005G10MPS